Time;durP1;ratioP1;P1;durP2;ratioP2;P2;SDS_P1;SDS_P2;PMS_P1;PMS_P2;Temp;Humidity;BMP_temperature;BMP_pressure;BME280_temperature;BME280_humidity;BME280_pressure;Samples;Min_cycle;Max_cycle;Signal;HPM_P1;HPM_P2
2022/01/27 00:04:51;;;;;;;34.92;26.33;;;;;;;;;;5058005;28;20059;-53
2022/01/27 00:07:16;;;;;;;41.00;32.20;;;;;;;;;;5054342;28;20131;-51
2022/01/27 00:12:07;;;;;;;31.17;23.23;;;;;;;;;;5056116;28;20366;-52
2022/01/27 00:14:32;;;;;;;23.73;21.17;;;;;;;;;;5055541;28;20025;-55
2022/01/27 00:17:02;;;;;;;29.10;22.05;;;;;;;;;;5058255;28;20393;-52
2022/01/27 00:19:27;;;;;;;19.52;16.10;;;;;;;;;;5056291;28;20114;-48
2022/01/27 00:21:53;;;;;;;23.73;14.10;;;;;;;;;;5060599;28;20494;-52
2022/01/27 00:24:18;;;;;;;19.33;15.55;;;;;;;;;;5055765;28;20046;-49
2022/01/27 00:26:44;;;;;;;27.10;20.35;;;;;;;;;;5056911;28;20024;-53
2022/01/27 00:29:10;;;;;;;22.80;19.40;;;;;;;;;;5061571;28;20025;-51
2022/01/27 00:31:35;;;;;;;33.88;22.13;;;;;;;;;;5055655;28;20382;-49
2022/01/27 00:34:03;;;;;;;24.40;20.13;;;;;;;;;;5055922;28;20031;-50
2022/01/27 00:36:29;;;;;;;19.08;12.88;;;;;;;;;;5054663;28;20032;-51
2022/01/27 00:38:55;;;;;;;24.42;16.60;;;;;;;;;;5052567;28;20394;-49
2022/01/27 00:41:21;;;;;;;14.10;12.00;;;;;;;;;;5053722;28;20070;-53
2022/01/27 00:43:48;;;;;;;27.95;20.55;;;;;;;;;;5058645;28;20028;-52
2022/01/27 00:46:16;;;;;;;38.72;27.67;;;;;;;;;;5059462;28;20078;-50
2022/01/27 00:48:41;;;;;;;22.33;19.25;;;;;;;;;;5057348;28;20085;-54
2022/01/27 00:51:09;;;;;;;27.23;21.98;;;;;;;;;;5057371;28;20033;-50
2022/01/27 00:56:11;;;;;;;37.53;22.77;;;;;;;;;;5056862;28;20052;-51
2022/01/27 01:01:34;;;;;;;23.70;19.05;;;;;;;;;;5050208;28;20054;-52
2022/01/27 01:04:03;;;;;;;20.23;12.75;;;;;;;;;;5057115;28;20024;-52
2022/01/27 01:30:09;;;;;;;28.75;20.67;;;;;;;;;;5043110;28;20035;-51
2022/01/27 01:35:00;;;;;;;32.45;21.42;;;;;;;;;;5055761;28;20021;-53
2022/01/27 01:37:26;;;;;;;16.90;13.15;;;;;;;;;;5059148;28;20048;-53
2022/01/27 01:39:51;;;;;;;17.45;13.27;;;;;;;;;;5056278;28;20572;-51
2022/01/27 01:42:16;;;;;;;14.23;12.45;;;;;;;;;;5052894;28;20025;-51
2022/01/27 01:44:43;;;;;;;13.43;11.77;;;;;;;;;;5052776;28;20017;-51
2022/01/27 01:47:09;;;;;;;33.00;29.02;;;;;;;;;;5056542;28;20021;-50
2022/01/27 01:49:34;;;;;;;41.42;27.40;;;;;;;;;;5055087;28;20025;-53
2022/01/27 01:52:03;;;;;;;33.10;25.63;;;;;;;;;;5054651;28;20044;-51
2022/01/27 01:54:28;;;;;;;25.40;22.30;;;;;;;;;;5053473;28;20077;-54
2022/01/27 01:56:53;;;;;;;23.15;19.60;;;;;;;;;;5056699;28;20136;-54
2022/01/27 01:59:19;;;;;;;20.05;14.98;;;;;;;;;;5055097;28;20155;-50
2022/01/27 02:01:45;;;;;;;15.63;10.57;;;;;;;;;;5056975;28;20052;-52
2022/01/27 02:04:11;;;;;;;12.65;8.80;;;;;;;;;;5053127;28;20024;-53
2022/01/27 02:06:52;;;;;;;9.40;8.43;;;;;;;;;;5056420;28;20013;-51
2022/01/27 02:20:06;;;;;;;14.55;10.60;;;;;;;;;;5053229;28;20496;-52
2022/01/27 02:22:31;;;;;;;15.30;13.70;;;;;;;;;;5053977;28;20103;-51
2022/01/27 02:24:57;;;;;;;25.58;16.48;;;;;;;;;;5054933;28;20599;-51
2022/01/27 02:27:22;;;;;;;19.83;13.55;;;;;;;;;;5056529;28;20024;-54
2022/01/27 02:29:48;;;;;;;13.52;12.10;;;;;;;;;;5054520;28;20016;-52
2022/01/27 02:32:14;;;;;;;15.70;12.85;;;;;;;;;;5057119;28;20611;-55
2022/01/27 02:34:40;;;;;;;14.77;11.75;;;;;;;;;;5057578;28;20025;-53
2022/01/27 02:37:06;;;;;;;12.15;9.85;;;;;;;;;;5059710;28;20029;-55
2022/01/27 02:39:31;;;;;;;14.88;9.20;;;;;;;;;;5056767;28;20035;-52
2022/01/27 02:41:59;;;;;;;14.38;7.53;;;;;;;;;;5053854;28;20044;-54
2022/01/27 02:44:29;;;;;;;8.20;7.10;;;;;;;;;;5054506;28;20024;-54
2022/01/27 02:46:55;;;;;;;9.85;7.15;;;;;;;;;;5054863;28;20021;-52
2022/01/27 02:49:20;;;;;;;8.32;7.15;;;;;;;;;;5054869;28;20113;-54
2022/01/27 02:51:45;;;;;;;10.45;6.95;;;;;;;;;;5055937;28;20021;-53
2022/01/27 02:54:11;;;;;;;14.98;8.73;;;;;;;;;;5054320;28;20024;-55
2022/01/27 02:56:43;;;;;;;15.00;10.68;;;;;;;;;;5053378;28;20540;-54
2022/01/27 02:59:08;;;;;;;13.73;12.20;;;;;;;;;;5052777;28;20025;-52
2022/01/27 03:01:34;;;;;;;19.23;13.60;;;;;;;;;;5053866;28;20564;-53
2022/01/27 03:03:59;;;;;;;10.82;9.52;;;;;;;;;;5055176;28;20025;-54
2022/01/27 03:06:24;;;;;;;11.52;8.23;;;;;;;;;;5053382;28;20385;-54
2022/01/27 03:08:50;;;;;;;11.25;6.15;;;;;;;;;;5053229;28;20528;-55
2022/01/27 03:11:31;;;;;;;14.88;13.05;;;;;;;;;;5055054;28;20028;-53
2022/01/27 03:13:57;;;;;;;9.57;8.57;;;;;;;;;;5054507;28;20524;-54
2022/01/27 03:16:22;;;;;;;16.83;8.02;;;;;;;;;;5053187;28;20028;-51
2022/01/27 03:18:47;;;;;;;8.27;6.28;;;;;;;;;;5054361;28;20024;-54
2022/01/27 03:21:15;;;;;;;7.25;5.53;;;;;;;;;;5054653;28;20539;-55
2022/01/27 03:23:40;;;;;;;7.50;5.90;;;;;;;;;;5052372;28;20066;-53
2022/01/27 03:26:06;;;;;;;6.50;5.40;;;;;;;;;;5053254;28;20021;-53
2022/01/27 03:28:31;;;;;;;10.32;4.65;;;;;;;;;;5056315;28;20529;-54
2022/01/27 03:30:56;;;;;;;7.97;4.40;;;;;;;;;;5051730;28;20033;-55
2022/01/27 03:33:22;;;;;;;6.63;4.18;;;;;;;;;;5051969;28;20039;-55
2022/01/27 03:35:47;;;;;;;9.43;5.40;;;;;;;;;;5059371;28;20029;-55
2022/01/27 03:38:12;;;;;;;20.35;5.00;;;;;;;;;;5058709;28;20427;-53
2022/01/27 03:40:38;;;;;;;5.95;4.93;;;;;;;;;;5057629;28;20504;-56
2022/01/27 03:43:06;;;;;;;7.07;4.97;;;;;;;;;;5059016;28;20028;-52
2022/01/27 03:45:31;;;;;;;4.97;3.40;;;;;;;;;;5055804;28;20106;-52
2022/01/27 03:47:56;;;;;;;4.90;3.55;;;;;;;;;;5057200;28;20102;-54
2022/01/27 03:50:22;;;;;;;3.42;2.30;;;;;;;;;;5057217;28;20023;-55
2022/01/27 03:52:47;;;;;;;4.43;2.58;;;;;;;;;;5059185;28;20497;-51
2022/01/27 03:55:12;;;;;;;3.55;2.13;;;;;;;;;;5055554;28;20028;-54
2022/01/27 03:57:38;;;;;;;9.23;4.70;;;;;;;;;;5057233;28;20748;-53
2022/01/27 04:00:05;;;;;;;13.48;6.75;;;;;;;;;;5053311;28;20620;-50
2022/01/27 04:02:30;;;;;;;10.07;5.93;;;;;;;;;;5060735;28;20147;-50
2022/01/27 04:04:55;;;;;;;6.22;5.53;;;;;;;;;;5057170;28;20158;-50
2022/01/27 04:07:21;;;;;;;9.02;5.85;;;;;;;;;;5059798;28;20040;-49
2022/01/27 04:09:46;;;;;;;7.75;5.63;;;;;;;;;;5059972;28;20024;-52
2022/01/27 04:12:11;;;;;;;7.70;6.28;;;;;;;;;;5059112;28;20381;-53
2022/01/27 04:14:37;;;;;;;7.47;5.03;;;;;;;;;;5057064;28;20032;-53
2022/01/27 04:17:02;;;;;;;7.45;5.97;;;;;;;;;;5057973;28;20029;-50
2022/01/27 04:19:27;;;;;;;6.07;4.88;;;;;;;;;;5056961;28;20483;-49
2022/01/27 04:21:53;;;;;;;5.78;5.18;;;;;;;;;;5057874;28;20032;-54
2022/01/27 04:24:18;;;;;;;9.07;3.70;;;;;;;;;;5052745;28;20125;-52
2022/01/27 04:26:48;;;;;;;4.80;3.58;;;;;;;;;;5056424;28;20026;-52
2022/01/27 04:29:15;;;;;;;4.45;3.30;;;;;;;;;;5055299;28;20482;-50
2022/01/27 04:31:43;;;;;;;11.55;4.75;;;;;;;;;;5056722;28;20029;-52
2022/01/27 04:34:08;;;;;;;6.40;4.20;;;;;;;;;;5056805;28;20104;-52
2022/01/27 04:36:35;;;;;;;8.73;3.55;;;;;;;;;;5058096;28;20120;-50
2022/01/27 04:39:29;;;;;;;5.28;3.22;;;;;;;;;;5059931;28;20021;-51
2022/01/27 04:42:03;;;;;;;6.70;2.47;;;;;;;;;;5055776;28;20063;-52
2022/01/27 04:47:01;;;;;;;3.58;2.92;;;;;;;;;;5055045;28;20029;-53
2022/01/27 04:49:27;;;;;;;7.45;3.05;;;;;;;;;;5053621;28;20029;-53
2022/01/27 04:51:52;;;;;;;4.85;3.55;;;;;;;;;;5055130;28;20514;-53
2022/01/27 04:54:25;;;;;;;6.53;3.90;;;;;;;;;;5058688;28;20484;-51
2022/01/27 04:56:50;;;;;;;6.25;2.78;;;;;;;;;;5056064;28;20068;-49
2022/01/27 04:59:24;;;;;;;6.28;3.28;;;;;;;;;;5059918;28;20052;-52
2022/01/27 05:01:58;;;;;;;4.35;2.90;;;;;;;;;;5054858;28;20151;-50
2022/01/27 05:04:29;;;;;;;6.55;2.70;;;;;;;;;;5057064;28;20021;-54
2022/01/27 05:06:55;;;;;;;7.38;4.57;;;;;;;;;;5059074;28;20103;-51
2022/01/27 05:09:20;;;;;;;10.82;3.88;;;;;;;;;;5060894;28;20107;-53
2022/01/27 05:11:59;;;;;;;4.93;4.00;;;;;;;;;;5057125;28;20568;-51
2022/01/27 05:14:26;;;;;;;5.10;2.90;;;;;;;;;;5056056;28;20021;-48
2022/01/27 05:16:52;;;;;;;4.45;3.63;;;;;;;;;;5056738;28;20515;-51
2022/01/27 05:19:18;;;;;;;5.07;3.47;;;;;;;;;;5058451;28;20684;-53
2022/01/27 05:21:43;;;;;;;6.03;3.40;;;;;;;;;;5057744;28;20032;-53
2022/01/27 05:24:09;;;;;;;5.07;2.25;;;;;;;;;;5055919;28;20024;-51
2022/01/27 05:26:35;;;;;;;5.40;3.75;;;;;;;;;;5057385;28;20028;-53
2022/01/27 05:29:02;;;;;;;5.57;4.25;;;;;;;;;;5057952;28;20017;-53
2022/01/27 05:31:27;;;;;;;6.20;4.40;;;;;;;;;;5054486;28;20029;-51
2022/01/27 05:33:53;;;;;;;5.85;4.55;;;;;;;;;;5058674;28;20680;-52
2022/01/27 05:36:18;;;;;;;7.93;5.35;;;;;;;;;;5056336;28;20025;-54
2022/01/27 05:38:43;;;;;;;10.57;4.15;;;;;;;;;;5057263;28;20031;-52
2022/01/27 05:41:09;;;;;;;10.88;6.15;;;;;;;;;;5058284;28;20475;-53
2022/01/27 05:43:34;;;;;;;8.10;5.28;;;;;;;;;;5055983;28;20029;-53
2022/01/27 05:46:00;;;;;;;12.82;3.53;;;;;;;;;;5055458;28;20024;-53
2022/01/27 05:48:25;;;;;;;9.10;3.47;;;;;;;;;;5055284;28;20017;-50
2022/01/27 05:50:50;;;;;;;18.92;12.82;;;;;;;;;;5056435;28;20025;-52
2022/01/27 05:53:15;;;;;;;17.15;11.25;;;;;;;;;;5053205;28;20107;-52
2022/01/27 05:55:41;;;;;;;14.05;8.70;;;;;;;;;;5058268;28;20089;-51
2022/01/27 05:58:06;;;;;;;10.30;7.63;;;;;;;;;;5054061;28;20028;-53
2022/01/27 06:00:31;;;;;;;18.25;8.38;;;;;;;;;;5054304;28;20051;-54
2022/01/27 06:02:57;;;;;;;10.00;5.88;;;;;;;;;;5052698;28;20025;-53
2022/01/27 06:05:23;;;;;;;12.93;3.97;;;;;;;;;;5053111;28;20028;-52
2022/01/27 06:07:48;;;;;;;5.00;3.33;;;;;;;;;;5054528;28;20021;-51
2022/01/27 06:10:14;;;;;;;5.88;4.95;;;;;;;;;;5056070;28;20024;-52
2022/01/27 06:12:46;;;;;;;22.65;17.75;;;;;;;;;;5052753;28;20040;-52
2022/01/27 06:15:11;;;;;;;17.40;6.93;;;;;;;;;;5053583;28;20481;-51
2022/01/27 06:17:37;;;;;;;5.50;3.85;;;;;;;;;;5052741;28;20036;-51
2022/01/27 06:20:03;;;;;;;8.55;4.63;;;;;;;;;;5054294;28;20032;-52
2022/01/27 06:22:28;;;;;;;8.30;5.20;;;;;;;;;;5052151;28;20024;-52
2022/01/27 06:24:53;;;;;;;7.03;4.93;;;;;;;;;;5052603;28;20021;-53
2022/01/27 06:27:19;;;;;;;6.38;4.72;;;;;;;;;;5057004;28;20035;-51
2022/01/27 06:29:44;;;;;;;17.10;7.05;;;;;;;;;;5056160;28;20076;-47
2022/01/27 06:32:09;;;;;;;17.05;7.15;;;;;;;;;;5056524;28;20049;-48
2022/01/27 06:34:35;;;;;;;10.02;8.65;;;;;;;;;;5059692;28;20016;-45
2022/01/27 06:37:00;;;;;;;14.88;6.60;;;;;;;;;;5054613;28;20036;-50
2022/01/27 06:39:26;;;;;;;8.57;4.20;;;;;;;;;;5058657;28;20166;-49
2022/01/27 06:41:51;;;;;;;13.00;7.72;;;;;;;;;;5056166;28;20105;-51
2022/01/27 06:44:16;;;;;;;40.72;30.40;;;;;;;;;;5052777;28;20052;-47
2022/01/27 06:46:42;;;;;;;24.45;12.77;;;;;;;;;;5051657;28;20047;-51
2022/01/27 06:49:07;;;;;;;7.35;6.38;;;;;;;;;;5053391;28;20040;-50
2022/01/27 06:51:32;;;;;;;17.83;7.40;;;;;;;;;;5053709;28;20025;-51
2022/01/27 06:53:58;;;;;;;15.48;7.28;;;;;;;;;;5054520;28;20071;-48
2022/01/27 06:56:24;;;;;;;9.75;6.38;;;;;;;;;;5055199;28;20155;-49
2022/01/27 06:58:49;;;;;;;5.68;4.85;;;;;;;;;;5055244;28;20510;-49
2022/01/27 07:01:14;;;;;;;12.95;4.65;;;;;;;;;;5053907;28;20028;-48
2022/01/27 07:03:40;;;;;;;5.70;4.80;;;;;;;;;;5053873;28;20413;-48
2022/01/27 07:06:05;;;;;;;17.38;5.30;;;;;;;;;;5055774;28;20033;-49
2022/01/27 07:08:30;;;;;;;9.70;6.32;;;;;;;;;;5058249;28;20025;-48
2022/01/27 07:10:56;;;;;;;6.80;5.55;;;;;;;;;;5055080;28;20071;-51
2022/01/27 07:13:21;;;;;;;6.85;5.78;;;;;;;;;;5059256;28;20397;-43
2022/01/27 07:15:46;;;;;;;5.80;4.60;;;;;;;;;;5059608;28;20024;-51
2022/01/27 07:18:12;;;;;;;7.15;3.42;;;;;;;;;;5057016;28;20481;-46
2022/01/27 07:20:37;;;;;;;4.18;3.03;;;;;;;;;;5059905;28;20071;-47
2022/01/27 07:23:02;;;;;;;10.23;3.17;;;;;;;;;;5059884;28;20043;-49
2022/01/27 07:25:28;;;;;;;8.00;2.83;;;;;;;;;;5059865;28;20151;-48
2022/01/27 07:27:53;;;;;;;6.18;3.55;;;;;;;;;;5056892;28;20020;-46
2022/01/27 07:30:18;;;;;;;6.05;2.75;;;;;;;;;;5060094;28;20374;-47
2022/01/27 07:32:44;;;;;;;5.55;3.40;;;;;;;;;;5058925;28;20094;-47
2022/01/27 07:35:09;;;;;;;5.20;3.65;;;;;;;;;;5058554;28;20440;-45
2022/01/27 07:37:35;;;;;;;6.93;4.18;;;;;;;;;;5058357;28;20467;-36
2022/01/27 07:40:00;;;;;;;10.85;5.65;;;;;;;;;;5057655;28;20012;-35
2022/01/27 07:42:25;;;;;;;23.27;6.55;;;;;;;;;;5058525;28;20051;-35
2022/01/27 07:44:51;;;;;;;6.95;5.18;;;;;;;;;;5056201;28;20012;-35
2022/01/27 07:47:16;;;;;;;24.67;17.88;;;;;;;;;;5058636;28;20028;-35
2022/01/27 07:49:41;;;;;;;8.38;6.50;;;;;;;;;;5061457;28;20741;-36
2022/01/27 07:52:07;;;;;;;9.70;8.68;;;;;;;;;;5057028;28;20484;-36
2022/01/27 07:54:32;;;;;;;13.85;9.65;;;;;;;;;;5057427;28;20021;-36
2022/01/27 07:56:57;;;;;;;23.30;9.25;;;;;;;;;;5054335;28;20461;-36
2022/01/27 07:59:22;;;;;;;12.18;9.18;;;;;;;;;;5057579;28;20013;-35
2022/01/27 08:01:48;;;;;;;18.60;15.27;;;;;;;;;;5057307;28;20045;-36
2022/01/27 08:04:13;;;;;;;25.52;18.60;;;;;;;;;;5057035;28;20078;-36
2022/01/27 08:06:39;;;;;;;27.38;24.67;;;;;;;;;;5057471;28;20020;-36
2022/01/27 08:09:04;;;;;;;21.30;18.30;;;;;;;;;;5055292;28;20070;-36
2022/01/27 08:11:30;;;;;;;28.23;20.25;;;;;;;;;;5058210;28;20029;-37
2022/01/27 08:13:55;;;;;;;51.85;35.92;;;;;;;;;;5056143;28;20012;-41
2022/01/27 08:16:20;;;;;;;47.67;24.77;;;;;;;;;;5059974;28;20025;-36
2022/01/27 08:18:46;;;;;;;40.40;27.63;;;;;;;;;;5060461;28;20040;-36
2022/01/27 08:21:11;;;;;;;41.10;25.48;;;;;;;;;;5056873;28;20032;-36
2022/01/27 08:23:38;;;;;;;37.00;33.15;;;;;;;;;;5054314;28;20025;-36
2022/01/27 08:26:09;;;;;;;40.17;31.83;;;;;;;;;;5056887;28;20533;-36
2022/01/27 08:28:41;;;;;;;39.30;31.33;;;;;;;;;;5056530;28;20025;-37
2022/01/27 08:31:06;;;;;;;37.20;33.47;;;;;;;;;;5057846;28;20234;-36
2022/01/27 08:33:32;;;;;;;36.13;29.67;;;;;;;;;;5058440;28;20133;-36
2022/01/27 08:36:01;;;;;;;34.88;31.48;;;;;;;;;;5054310;28;20032;-36
2022/01/27 08:38:27;;;;;;;41.85;37.53;;;;;;;;;;5054568;28;20023;-37
2022/01/27 08:40:52;;;;;;;47.17;39.95;;;;;;;;;;5059668;28;20025;-36
2022/01/27 08:43:17;;;;;;;49.28;36.08;;;;;;;;;;5055947;28;20657;-37
2022/01/27 08:45:44;;;;;;;38.20;34.05;;;;;;;;;;5057072;28;20092;-36
2022/01/27 08:48:12;;;;;;;50.35;37.13;;;;;;;;;;5058190;28;20117;-36
2022/01/27 08:50:38;;;;;;;48.33;38.63;;;;;;;;;;5056123;28;20039;-35
2022/01/27 08:53:03;;;;;;;36.50;30.13;;;;;;;;;;5055116;28;20020;-36
2022/01/27 08:55:29;;;;;;;43.75;36.03;;;;;;;;;;5056389;28;20444;-36
2022/01/27 08:57:54;;;;;;;39.97;35.80;;;;;;;;;;5051702;28;20100;-36
2022/01/27 09:00:20;;;;;;;41.28;35.83;;;;;;;;;;5054757;28;20028;-36
2022/01/27 09:02:46;;;;;;;41.38;36.65;;;;;;;;;;5055120;28;20106;-36
2022/01/27 09:05:11;;;;;;;45.70;41.08;;;;;;;;;;5057575;28;20079;-36
2022/01/27 09:07:37;;;;;;;37.90;33.80;;;;;;;;;;5056639;28;20168;-36
2022/01/27 09:10:03;;;;;;;40.45;32.80;;;;;;;;;;5057893;28;20565;-37
2022/01/27 09:12:28;;;;;;;43.00;38.35;;;;;;;;;;5055538;28;20020;-37
2022/01/27 09:14:54;;;;;;;44.85;36.72;;;;;;;;;;5057356;28;20035;-36
2022/01/27 09:17:24;;;;;;;40.25;33.75;;;;;;;;;;5060637;28;20025;-36
2022/01/27 09:19:50;;;;;;;58.13;45.15;;;;;;;;;;5056324;28;20021;-37
2022/01/27 09:22:17;;;;;;;57.03;50.85;;;;;;;;;;5050887;28;20464;-37
2022/01/27 09:27:16;;;;;;;97.35;83.85;;;;;;;;;;5052056;28;20545;-36
2022/01/27 09:29:41;;;;;;;93.15;79.00;;;;;;;;;;5058661;28;20473;-36
2022/01/27 09:32:07;;;;;;;98.13;83.25;;;;;;;;;;5057850;28;20013;-37
2022/01/27 09:34:32;;;;;;;88.03;78.53;;;;;;;;;;5055522;28;20115;-37
2022/01/27 09:37:02;;;;;;;103.55;92.25;;;;;;;;;;5055922;28;20645;-37
2022/01/27 09:39:27;;;;;;;82.43;70.72;;;;;;;;;;5052873;28;20103;-37
2022/01/27 09:41:54;;;;;;;69.78;61.72;;;;;;;;;;5056736;28;20188;-38
2022/01/27 09:44:20;;;;;;;63.47;51.25;;;;;;;;;;5055183;28;20371;-37
2022/01/27 09:46:46;;;;;;;27.27;24.33;;;;;;;;;;5051941;28;20040;-36
2022/01/27 09:49:15;;;;;;;37.65;31.50;;;;;;;;;;5055535;28;20029;-36
2022/01/27 09:51:44;;;;;;;30.15;26.15;;;;;;;;;;5060038;28;20119;-37
2022/01/27 09:54:10;;;;;;;29.23;24.83;;;;;;;;;;5053797;28;20035;-37
2022/01/27 09:56:35;;;;;;;26.33;21.95;;;;;;;;;;5053257;28;20049;-37
2022/01/27 09:59:01;;;;;;;37.08;26.33;;;;;;;;;;5052591;28;20023;-37
2022/01/27 10:01:26;;;;;;;28.25;25.30;;;;;;;;;;5057223;28;20024;-38
2022/01/27 10:03:59;;;;;;;40.28;27.60;;;;;;;;;;5053182;28;20027;-38
2022/01/27 10:06:33;;;;;;;36.95;30.67;;;;;;;;;;5050654;28;20019;-41
2022/01/27 10:09:24;;;;;;;29.63;26.73;;;;;;;;;;5050726;28;20367;-39
2022/01/27 10:11:50;;;;;;;23.77;19.40;;;;;;;;;;5048665;28;20080;-37
2022/01/27 10:14:19;;;;;;;28.75;17.95;;;;;;;;;;5050787;28;20032;-38
2022/01/27 10:16:45;;;;;;;23.40;20.30;;;;;;;;;;5053499;28;20023;-37
2022/01/27 10:19:11;;;;;;;23.98;21.45;;;;;;;;;;5054514;28;20592;-38
2022/01/27 10:21:37;;;;;;;21.15;18.95;;;;;;;;;;5052346;28;20024;-38
2022/01/27 10:24:25;;;;;;;33.63;29.98;;;;;;;;;;5055574;28;20355;-38
2022/01/27 10:27:16;;;;;;;32.95;28.80;;;;;;;;;;5054655;28;20037;-39
2022/01/27 10:29:50;;;;;;;28.13;25.10;;;;;;;;;;5053674;28;20059;-38
2022/01/27 10:32:16;;;;;;;29.83;26.63;;;;;;;;;;5052911;28;20036;-38
2022/01/27 10:34:54;;;;;;;8.18;6.30;;;;;;;;;;5053072;28;20142;-37
2022/01/27 10:37:20;;;;;;;4.18;2.03;;;;;;;;;;5053427;28;20017;-39
2022/01/27 10:39:46;;;;;;;5.80;3.40;;;;;;;;;;5052578;28;20031;-40
2022/01/27 10:42:11;;;;;;;7.80;5.22;;;;;;;;;;5050764;28;20103;-42
2022/01/27 10:44:43;;;;;;;3.67;2.35;;;;;;;;;;5052661;28;20107;-41
2022/01/27 10:47:14;;;;;;;6.05;4.65;;;;;;;;;;5053400;28;20099;-41
2022/01/27 10:49:50;;;;;;;9.70;5.57;;;;;;;;;;5054078;28;20572;-39
2022/01/27 10:52:50;;;;;;;7.35;4.32;;;;;;;;;;5051529;28;20107;-40
2022/01/27 10:55:18;;;;;;;13.45;8.80;;;;;;;;;;5055874;28;20032;-44
2022/01/27 10:57:49;;;;;;;7.93;5.95;;;;;;;;;;5055992;28;20045;-42
2022/01/27 11:00:16;;;;;;;20.70;7.20;;;;;;;;;;5053939;28;20143;-41
2022/01/27 11:02:52;;;;;;;9.38;4.05;;;;;;;;;;5050380;28;20055;-40
2022/01/27 11:05:18;;;;;;;8.10;4.03;;;;;;;;;;5050135;28;20028;-41
2022/01/27 11:07:44;;;;;;;13.88;5.60;;;;;;;;;;5054277;28;20486;-38
2022/01/27 11:10:15;;;;;;;10.10;5.07;;;;;;;;;;5053814;28;20091;-38
2022/01/27 11:12:42;;;;;;;5.30;4.03;;;;;;;;;;5052273;28;20029;-41
2022/01/27 11:15:09;;;;;;;9.10;6.13;;;;;;;;;;5051673;28;20043;-40
2022/01/27 11:17:37;;;;;;;7.40;4.97;;;;;;;;;;5049419;28;20025;-38
2022/01/27 11:20:20;;;;;;;8.32;4.60;;;;;;;;;;5051258;28;20093;-39
2022/01/27 11:27:48;;;;;;;8.77;5.93;;;;;;;;;;5053310;28;20036;-38
2022/01/27 11:30:18;;;;;;;8.77;6.22;;;;;;;;;;5050298;28;20025;-38
2022/01/27 11:32:49;;;;;;;8.93;7.05;;;;;;;;;;5056097;28;20044;-40
2022/01/27 11:35:15;;;;;;;8.05;5.50;;;;;;;;;;5056688;28;20177;-41
2022/01/27 11:37:41;;;;;;;15.43;12.60;;;;;;;;;;5053080;28;20028;-41
2022/01/27 11:40:08;;;;;;;6.55;5.20;;;;;;;;;;5052024;28;20051;-42
2022/01/27 11:42:37;;;;;;;8.27;7.47;;;;;;;;;;5055625;28;20076;-40
2022/01/27 11:45:20;;;;;;;21.88;16.00;;;;;;;;;;5052360;28;20029;-38
2022/01/27 11:48:10;;;;;;;13.50;10.73;;;;;;;;;;5050775;28;20594;-39
2022/01/27 11:50:38;;;;;;;8.20;7.38;;;;;;;;;;5052794;28;20521;-38
2022/01/27 11:53:05;;;;;;;16.88;11.15;;;;;;;;;;5054918;28;20116;-37
2022/01/27 11:55:33;;;;;;;7.18;6.22;;;;;;;;;;5051737;28;20033;-38
2022/01/27 11:57:59;;;;;;;10.30;8.63;;;;;;;;;;5055192;28;20187;-40
2022/01/27 12:00:26;;;;;;;14.70;13.18;;;;;;;;;;5054478;28;20441;-38
2022/01/27 12:03:12;;;;;;;18.55;9.30;;;;;;;;;;5053434;28;20017;-40
2022/01/27 12:05:42;;;;;;;10.30;8.35;;;;;;;;;;5056811;28;20166;-39
2022/01/27 12:08:17;;;;;;;7.63;6.88;;;;;;;;;;5058418;28;20024;-39
2022/01/27 12:10:48;;;;;;;15.55;7.10;;;;;;;;;;5052381;28;20064;-42
2022/01/27 12:13:38;;;;;;;28.58;19.65;;;;;;;;;;5059322;28;20170;-42
2022/01/27 12:18:44;;;;;;;;;;;;;;;;;;5056754;28;20048;-41
2022/01/27 12:21:28;;;;;;;8.27;6.55;;;;;;;;;;5055840;28;20501;-38
2022/01/27 12:24:25;;;;;;;14.27;6.30;;;;;;;;;;5053665;28;20028;-40
2022/01/27 12:26:50;;;;;;;23.05;11.63;;;;;;;;;;5057721;28;20398;-40
2022/01/27 12:29:23;;;;;;;6.72;4.75;;;;;;;;;;5056137;28;20025;-44
2022/01/27 12:31:49;;;;;;;6.72;6.03;;;;;;;;;;5055939;28;20307;-38
2022/01/27 12:34:14;;;;;;;10.98;7.47;;;;;;;;;;5054025;28;20500;-39
2022/01/27 12:36:51;;;;;;;14.10;5.07;;;;;;;;;;5059993;28;20063;-41
2022/01/27 12:39:23;;;;;;;7.07;5.68;;;;;;;;;;5053576;28;20020;-38
2022/01/27 12:41:53;;;;;;;13.07;4.20;;;;;;;;;;5053644;28;20098;-40
2022/01/27 12:44:18;;;;;;;27.02;14.82;;;;;;;;;;5057144;28;20021;-43
2022/01/27 12:47:03;;;;;;;5.00;4.32;;;;;;;;;;5058321;28;20041;-40
2022/01/27 12:49:35;;;;;;;8.15;6.00;;;;;;;;;;5055970;28;20139;-40
2022/01/27 12:52:01;;;;;;;8.68;3.22;;;;;;;;;;5054594;28;20033;-41
2022/01/27 12:54:26;;;;;;;8.77;4.85;;;;;;;;;;5052084;28;20108;-40
2022/01/27 12:56:52;;;;;;;6.47;4.03;;;;;;;;;;5055410;28;20067;-41
2022/01/27 12:59:19;;;;;;;3.78;3.25;;;;;;;;;;5055071;28;20045;-43
2022/01/27 13:01:54;;;;;;;8.60;3.67;;;;;;;;;;5058474;28;20035;-41
2022/01/27 13:04:23;;;;;;;15.90;4.97;;;;;;;;;;5055929;28;20021;-41
2022/01/27 13:06:52;;;;;;;8.30;3.65;;;;;;;;;;5055937;28;20060;-40
2022/01/27 13:09:18;;;;;;;4.82;3.20;;;;;;;;;;5056490;28;20517;-41
2022/01/27 13:11:43;;;;;;;3.28;2.75;;;;;;;;;;5056569;28;20036;-40
2022/01/27 13:14:08;;;;;;;6.57;3.63;;;;;;;;;;5053981;28;20024;-33
2022/01/27 13:16:47;;;;;;;13.40;6.20;;;;;;;;;;5053822;28;20569;-39
2022/01/27 13:19:49;;;;;;;13.23;9.07;;;;;;;;;;5054199;28;20021;-43
2022/01/27 13:22:07;;;;;;;6.45;4.00;;;;;;;;;;5051935;28;20512;-37
2022/01/27 13:24:34;;;;;;;14.85;12.05;;;;;;;;;;5054609;28;20045;-45
2022/01/27 13:27:08;;;;;;;11.75;10.50;;;;;;;;;;5054497;28;20028;-35
2022/01/27 13:29:44;;;;;;;9.23;6.47;;;;;;;;;;5057734;28;20048;-36
2022/01/27 13:32:10;;;;;;;5.22;2.67;;;;;;;;;;5057548;28;20035;-36
2022/01/27 13:34:40;;;;;;;11.82;5.40;;;;;;;;;;5055256;28;20032;-41
2022/01/27 13:37:05;;;;;;;22.50;7.68;;;;;;;;;;5053146;28;20028;-36
2022/01/27 13:42:17;;;;;;;13.43;7.82;;;;;;;;;;5053892;28;20019;-36
2022/01/27 13:44:55;;;;;;;6.03;2.58;;;;;;;;;;5054665;28;20013;-36
2022/01/27 13:47:25;;;;;;;7.35;3.38;;;;;;;;;;5056029;28;20040;-36
2022/01/27 13:49:51;;;;;;;3.92;3.22;;;;;;;;;;5056266;28;20025;-35
2022/01/27 13:52:17;;;;;;;3.90;2.65;;;;;;;;;;5057862;28;20025;-35
2022/01/27 13:54:46;;;;;;;5.93;2.63;;;;;;;;;;5060284;28;20084;-36
2022/01/27 13:57:13;;;;;;;6.22;3.55;;;;;;;;;;5060315;28;20044;-36
2022/01/27 14:00:09;;;;;;;5.97;3.72;;;;;;;;;;5055216;28;20567;-36
2022/01/27 14:02:35;;;;;;;26.55;24.23;;;;;;;;;;5055636;28;20052;-36
2022/01/27 14:05:09;;;;;;;6.20;5.38;;;;;;;;;;5055191;28;20993;-35
2022/01/27 14:07:36;;;;;;;6.82;4.25;;;;;;;;;;5055344;28;20017;-35
2022/01/27 14:10:07;;;;;;;6.30;3.85;;;;;;;;;;5057259;28;20034;-35
2022/01/27 14:13:01;;;;;;;3.58;2.30;;;;;;;;;;5057980;28;20051;-36
2022/01/27 14:15:39;;;;;;;4.63;2.67;;;;;;;;;;5056006;28;20043;-36
2022/01/27 14:18:24;;;;;;;4.00;2.40;;;;;;;;;;5055552;28;20553;-37
2022/01/27 14:20:51;;;;;;;3.03;1.98;;;;;;;;;;5056331;28;20033;-37
2022/01/27 14:23:18;;;;;;;3.75;3.40;;;;;;;;;;5060053;28;20033;-36
2022/01/27 14:25:54;;;;;;;8.20;2.85;;;;;;;;;;5054562;28;20033;-35
2022/01/27 14:28:20;;;;;;;12.82;5.55;;;;;;;;;;5057210;28;20021;-36
2022/01/27 14:30:45;;;;;;;3.42;3.10;;;;;;;;;;5057663;28;20082;-38
2022/01/27 14:33:11;;;;;;;5.63;3.53;;;;;;;;;;5053027;28;20024;-36
2022/01/27 14:35:36;;;;;;;1.73;1.40;;;;;;;;;;5086577;28;20016;-38
2022/01/27 14:38:02;;;;;;;5.43;3.85;;;;;;;;;;5056120;28;20373;-36
2022/01/27 14:40:27;;;;;;;11.23;2.30;;;;;;;;;;5056227;28;20048;-37
2022/01/27 14:42:57;;;;;;;3.97;2.97;;;;;;;;;;5058372;28;20027;-36
2022/01/27 14:45:23;;;;;;;3.70;2.65;;;;;;;;;;5054402;28;20020;-36
2022/01/27 14:47:51;;;;;;;5.78;3.88;;;;;;;;;;5057840;28;20035;-37
2022/01/27 14:50:16;;;;;;;3.30;1.85;;;;;;;;;;5059259;28;20111;-36
2022/01/27 14:52:44;;;;;;;5.10;3.70;;;;;;;;;;5058845;28;20199;-36
2022/01/27 14:55:13;;;;;;;17.48;4.68;;;;;;;;;;5058008;28;20048;-37
2022/01/27 14:57:39;;;;;;;4.75;3.25;;;;;;;;;;5061209;28;20144;-39
2022/01/27 15:00:05;;;;;;;4.60;4.05;;;;;;;;;;5057122;28;20021;-36
2022/01/27 15:02:30;;;;;;;4.60;3.38;;;;;;;;;;5055717;28;20061;-36
2022/01/27 15:04:55;;;;;;;6.03;3.88;;;;;;;;;;5055815;28;20078;-37
2022/01/27 15:07:21;;;;;;;4.57;3.58;;;;;;;;;;5056261;28;20519;-37
2022/01/27 15:09:46;;;;;;;6.68;2.80;;;;;;;;;;5057901;28;20061;-36
2022/01/27 15:12:15;;;;;;;3.05;2.45;;;;;;;;;;5054619;28;20028;-38
2022/01/27 15:20:11;;;;;;;5.95;5.20;;;;;;;;;;5056360;28;20020;-36
2022/01/27 15:22:37;;;;;;;12.18;10.88;;;;;;;;;;5057550;28;20641;-36
2022/01/27 15:25:02;;;;;;;6.88;6.20;;;;;;;;;;5050931;28;20017;-36
2022/01/27 15:27:27;;;;;;;10.02;7.72;;;;;;;;;;5051713;28;20753;-36
2022/01/27 15:29:53;;;;;;;19.83;16.90;;;;;;;;;;5053803;28;20025;-36
2022/01/27 15:32:21;;;;;;;81.10;19.77;;;;;;;;;;5056802;28;20028;-36
2022/01/27 15:34:46;;;;;;;81.25;65.28;;;;;;;;;;5054318;28;20025;-36
2022/01/27 15:37:13;;;;;;;58.53;39.55;;;;;;;;;;5056236;28;20281;-37
2022/01/27 15:39:43;;;;;;;19.20;17.05;;;;;;;;;;5059857;28;20023;-39
2022/01/27 15:42:11;;;;;;;19.45;16.77;;;;;;;;;;5057866;28;20222;-37
2022/01/27 15:44:36;;;;;;;17.33;15.48;;;;;;;;;;5060910;28;20402;-38